McGehee, Arkansas
Current Conditions -  °F | °C
As of 9:35 AM on Monday 22 Dec 2014 (Local Time) from KLLQ Reporting Station
Haze Haze  
Wind Chill: 52°   Ceiling: 200
Heat Index: 52°   Visibility: 3mi
Dew Point: 50°   Wind: 14mph
Humidity: 93%   Direction: 170°S
Pressure: 29.77"   Gusts: NA
Location:  33.63°N, 91.39°W
Report Text: KLLQ 221535Z AUTO 17012KT 3SM BR OVC002 11/10 A2977 RMK AO2 T01110100
Loading
Personal Weather Stations






























Interactive Weather Map New forecast layout! Learn more

10-Day Weather Forecast

Advertisements
Track Severe Weather on mobile